sensor_id;sensor_type;location;lat;lon;timestamp;P1;durP1;ratioP1;P2;durP2;ratioP2
19285;SDS011;9776;50.798;6.430;2023-01-16T00:01:19;1.90;;;1.80;;
19285;SDS011;9776;50.798;6.430;2023-01-16T00:03:46;1.65;;;1.55;;
19285;SDS011;9776;50.798;6.430;2023-01-16T00:06:13;1.67;;;1.58;;
19285;SDS011;9776;50.798;6.430;2023-01-16T00:08:40;1.70;;;1.60;;
19285;SDS011;9776;50.798;6.430;2023-01-16T00:11:07;1.58;;;1.48;;
19285;SDS011;9776;50.798;6.430;2023-01-16T00:13:34;1.75;;;1.65;;
19285;SDS011;9776;50.798;6.430;2023-01-16T00:16:01;1.63;;;1.52;;
19285;SDS011;9776;50.798;6.430;2023-01-16T00:18:29;2.13;;;1.70;;
19285;SDS011;9776;50.798;6.430;2023-01-16T00:20:56;2.08;;;1.90;;
19285;SDS011;9776;50.798;6.430;2023-01-16T00:23:22;1.80;;;1.70;;
19285;SDS011;9776;50.798;6.430;2023-01-16T00:25:49;2.60;;;1.70;;
19285;SDS011;9776;50.798;6.430;2023-01-16T00:28:16;1.75;;;1.65;;
19285;SDS011;9776;50.798;6.430;2023-01-16T00:30:42;1.77;;;1.67;;
19285;SDS011;9776;50.798;6.430;2023-01-16T00:33:10;1.90;;;1.80;;
19285;SDS011;9776;50.798;6.430;2023-01-16T00:35:38;1.90;;;1.77;;
19285;SDS011;9776;50.798;6.430;2023-01-16T00:38:05;1.60;;;1.55;;
19285;SDS011;9776;50.798;6.430;2023-01-16T00:40:32;1.80;;;1.70;;
19285;SDS011;9776;50.798;6.430;2023-01-16T00:42:58;2.00;;;1.77;;
19285;SDS011;9776;50.798;6.430;2023-01-16T00:45:25;2.20;;;1.70;;
19285;SDS011;9776;50.798;6.430;2023-01-16T00:47:52;1.95;;;1.77;;
19285;SDS011;9776;50.798;6.430;2023-01-16T00:50:18;1.67;;;1.58;;
19285;SDS011;9776;50.798;6.430;2023-01-16T00:52:47;2.03;;;1.92;;
19285;SDS011;9776;50.798;6.430;2023-01-16T00:55:13;1.90;;;1.80;;
19285;SDS011;9776;50.798;6.430;2023-01-16T00:57:40;1.95;;;1.85;;
19285;SDS011;9776;50.798;6.430;2023-01-16T01:00:07;1.88;;;1.77;;
19285;SDS011;9776;50.798;6.430;2023-01-16T01:02:35;1.88;;;1.77;;
19285;SDS011;9776;50.798;6.430;2023-01-16T01:05:02;1.90;;;1.80;;
19285;SDS011;9776;50.798;6.430;2023-01-16T01:07:31;2.00;;;1.77;;
19285;SDS011;9776;50.798;6.430;2023-01-16T01:09:59;1.92;;;1.83;;
19285;SDS011;9776;50.798;6.430;2023-01-16T01:12:26;1.85;;;1.73;;
19285;SDS011;9776;50.798;6.430;2023-01-16T01:14:53;1.70;;;1.60;;
19285;SDS011;9776;50.798;6.430;2023-01-16T01:17:19;1.60;;;1.50;;
19285;SDS011;9776;50.798;6.430;2023-01-16T01:19:46;1.85;;;1.70;;
19285;SDS011;9776;50.798;6.430;2023-01-16T01:22:13;1.98;;;1.88;;
19285;SDS011;9776;50.798;6.430;2023-01-16T01:24:41;1.70;;;1.60;;
19285;SDS011;9776;50.798;6.430;2023-01-16T01:27:09;1.83;;;1.73;;
19285;SDS011;9776;50.798;6.430;2023-01-16T01:29:35;1.80;;;1.70;;
19285;SDS011;9776;50.798;6.430;2023-01-16T01:32:02;1.85;;;1.75;;
19285;SDS011;9776;50.798;6.430;2023-01-16T01:34:30;1.75;;;1.65;;
19285;SDS011;9776;50.798;6.430;2023-01-16T01:36:59;1.70;;;1.60;;
19285;SDS011;9776;50.798;6.430;2023-01-16T01:39:25;2.00;;;1.90;;
19285;SDS011;9776;50.798;6.430;2023-01-16T01:41:52;1.92;;;1.83;;
19285;SDS011;9776;50.798;6.430;2023-01-16T01:47:28;1.80;;;1.70;;
19285;SDS011;9776;50.798;6.430;2023-01-16T01:49:59;2.03;;;1.92;;
19285;SDS011;9776;50.798;6.430;2023-01-16T01:52:29;1.73;;;1.63;;
19285;SDS011;9776;50.798;6.430;2023-01-16T01:54:59;1.70;;;1.60;;
19285;SDS011;9776;50.798;6.430;2023-01-16T01:57:30;1.60;;;1.50;;
19285;SDS011;9776;50.798;6.430;2023-01-16T02:00:03;1.40;;;1.40;;
19285;SDS011;9776;50.798;6.430;2023-01-16T02:02:33;2.03;;;1.92;;
19285;SDS011;9776;50.798;6.430;2023-01-16T02:05:03;1.83;;;1.73;;
19285;SDS011;9776;50.798;6.430;2023-01-16T02:07:33;1.80;;;1.70;;
19285;SDS011;9776;50.798;6.430;2023-01-16T02:10:02;1.90;;;1.80;;
19285;SDS011;9776;50.798;6.430;2023-01-16T02:12:36;1.83;;;1.73;;
19285;SDS011;9776;50.798;6.430;2023-01-16T02:15:05;1.73;;;1.63;;
19285;SDS011;9776;50.798;6.430;2023-01-16T02:17:32;1.50;;;1.50;;
19285;SDS011;9776;50.798;6.430;2023-01-16T02:20:17;2.03;;;1.92;;
19285;SDS011;9776;50.798;6.430;2023-01-16T02:22:55;2.55;;;1.70;;
19285;SDS011;9776;50.798;6.430;2023-01-16T02:26:01;1.70;;;1.60;;
19285;SDS011;9776;50.798;6.430;2023-01-16T02:28:55;1.73;;;1.63;;
19285;SDS011;9776;50.798;6.430;2023-01-16T02:31:37;1.77;;;1.67;;
19285;SDS011;9776;50.798;6.430;2023-01-16T02:34:16;1.75;;;1.65;;
19285;SDS011;9776;50.798;6.430;2023-01-16T02:36:54;1.52;;;1.50;;
19285;SDS011;9776;50.798;6.430;2023-01-16T02:39:30;1.70;;;1.60;;
19285;SDS011;9776;50.798;6.430;2023-01-16T02:42:03;2.03;;;1.92;;
19285;SDS011;9776;50.798;6.430;2023-01-16T02:44:37;1.67;;;1.58;;
19285;SDS011;9776;50.798;6.430;2023-01-16T02:47:15;1.60;;;1.50;;
19285;SDS011;9776;50.798;6.430;2023-01-16T02:49:49;1.85;;;1.75;;
19285;SDS011;9776;50.798;6.430;2023-01-16T02:52:25;1.70;;;1.60;;
19285;SDS011;9776;50.798;6.430;2023-01-16T02:54:59;1.30;;;1.30;;
19285;SDS011;9776;50.798;6.430;2023-01-16T02:57:31;1.83;;;1.73;;
19285;SDS011;9776;50.798;6.430;2023-01-16T03:00:03;1.88;;;1.77;;
19285;SDS011;9776;50.798;6.430;2023-01-16T03:02:32;1.70;;;1.60;;
19285;SDS011;9776;50.798;6.430;2023-01-16T03:04:59;1.83;;;1.73;;
19285;SDS011;9776;50.798;6.430;2023-01-16T03:10:31;1.70;;;1.60;;
19285;SDS011;9776;50.798;6.430;2023-01-16T03:13:16;1.77;;;1.67;;
19285;SDS011;9776;50.798;6.430;2023-01-16T03:15:51;1.75;;;1.65;;
19285;SDS011;9776;50.798;6.430;2023-01-16T03:18:31;1.80;;;1.70;;
19285;SDS011;9776;50.798;6.430;2023-01-16T03:21:03;1.70;;;1.60;;
19285;SDS011;9776;50.798;6.430;2023-01-16T03:23:39;1.85;;;1.75;;
19285;SDS011;9776;50.798;6.430;2023-01-16T03:26:16;2.00;;;1.80;;
19285;SDS011;9776;50.798;6.430;2023-01-16T03:28:54;1.70;;;1.60;;
19285;SDS011;9776;50.798;6.430;2023-01-16T03:31:28;1.70;;;1.60;;
19285;SDS011;9776;50.798;6.430;2023-01-16T03:34:03;1.73;;;1.63;;
19285;SDS011;9776;50.798;6.430;2023-01-16T03:36:38;2.05;;;1.95;;
19285;SDS011;9776;50.798;6.430;2023-01-16T03:39:10;1.65;;;1.60;;
19285;SDS011;9776;50.798;6.430;2023-01-16T03:41:39;1.75;;;1.65;;
19285;SDS011;9776;50.798;6.430;2023-01-16T03:44:11;1.85;;;1.75;;
19285;SDS011;9776;50.798;6.430;2023-01-16T03:46:43;2.13;;;2.03;;
19285;SDS011;9776;50.798;6.430;2023-01-16T03:49:16;1.80;;;1.70;;
19285;SDS011;9776;50.798;6.430;2023-01-16T03:51:47;2.05;;;1.70;;
19285;SDS011;9776;50.798;6.430;2023-01-16T03:54:22;2.15;;;2.05;;
19285;SDS011;9776;50.798;6.430;2023-01-16T03:56:55;1.88;;;1.73;;
19285;SDS011;9776;50.798;6.430;2023-01-16T03:59:27;2.08;;;1.98;;
19285;SDS011;9776;50.798;6.430;2023-01-16T04:01:55;2.03;;;1.90;;
19285;SDS011;9776;50.798;6.430;2023-01-16T04:04:27;2.05;;;1.85;;
19285;SDS011;9776;50.798;6.430;2023-01-16T04:07:01;2.10;;;2.00;;
19285;SDS011;9776;50.798;6.430;2023-01-16T04:09:38;2.20;;;2.10;;
19285;SDS011;9776;50.798;6.430;2023-01-16T04:12:10;2.00;;;1.90;;
19285;SDS011;9776;50.798;6.430;2023-01-16T04:14:39;1.70;;;1.60;;
19285;SDS011;9776;50.798;6.430;2023-01-16T04:17:08;1.85;;;1.75;;
19285;SDS011;9776;50.798;6.430;2023-01-16T04:19:37;1.98;;;1.88;;
19285;SDS011;9776;50.798;6.430;2023-01-16T04:22:04;1.95;;;1.85;;
19285;SDS011;9776;50.798;6.430;2023-01-16T04:24:32;2.03;;;1.92;;
19285;SDS011;9776;50.798;6.430;2023-01-16T04:26:59;2.10;;;2.00;;
19285;SDS011;9776;50.798;6.430;2023-01-16T04:29:26;1.90;;;1.80;;
19285;SDS011;9776;50.798;6.430;2023-01-16T04:31:53;2.20;;;2.10;;
19285;SDS011;9776;50.798;6.430;2023-01-16T04:34:20;2.00;;;1.90;;
19285;SDS011;9776;50.798;6.430;2023-01-16T04:36:48;1.88;;;1.77;;
19285;SDS011;9776;50.798;6.430;2023-01-16T04:39:14;1.90;;;1.80;;
19285;SDS011;9776;50.798;6.430;2023-01-16T04:41:41;2.22;;;2.03;;
19285;SDS011;9776;50.798;6.430;2023-01-16T04:44:09;2.40;;;2.20;;
19285;SDS011;9776;50.798;6.430;2023-01-16T04:46:37;1.92;;;1.75;;
19285;SDS011;9776;50.798;6.430;2023-01-16T04:49:04;2.00;;;1.90;;
19285;SDS011;9776;50.798;6.430;2023-01-16T04:51:31;2.00;;;1.90;;
19285;SDS011;9776;50.798;6.430;2023-01-16T04:53:59;1.98;;;1.88;;
19285;SDS011;9776;50.798;6.430;2023-01-16T04:56:26;1.88;;;1.77;;
19285;SDS011;9776;50.798;6.430;2023-01-16T04:58:53;2.10;;;2.00;;
19285;SDS011;9776;50.798;6.430;2023-01-16T05:01:20;2.08;;;1.90;;
19285;SDS011;9776;50.798;6.430;2023-01-16T05:03:48;1.98;;;1.88;;
19285;SDS011;9776;50.798;6.430;2023-01-16T05:06:16;1.98;;;1.85;;
19285;SDS011;9776;50.798;6.430;2023-01-16T05:08:43;1.80;;;1.70;;
19285;SDS011;9776;50.798;6.430;2023-01-16T05:11:11;1.80;;;1.60;;
19285;SDS011;9776;50.798;6.430;2023-01-16T05:13:38;1.80;;;1.70;;
19285;SDS011;9776;50.798;6.430;2023-01-16T05:16:04;1.70;;;1.60;;
19285;SDS011;9776;50.798;6.430;2023-01-16T05:18:32;1.77;;;1.67;;
19285;SDS011;9776;50.798;6.430;2023-01-16T05:20:59;1.90;;;1.80;;
19285;SDS011;9776;50.798;6.430;2023-01-16T05:23:25;1.75;;;1.65;;
19285;SDS011;9776;50.798;6.430;2023-01-16T05:25:52;1.70;;;1.60;;
19285;SDS011;9776;50.798;6.430;2023-01-16T05:28:21;1.80;;;1.70;;
19285;SDS011;9776;50.798;6.430;2023-01-16T05:30:48;1.70;;;1.60;;
19285;SDS011;9776;50.798;6.430;2023-01-16T05:33:15;1.98;;;1.75;;
19285;SDS011;9776;50.798;6.430;2023-01-16T05:35:41;1.70;;;1.60;;
19285;SDS011;9776;50.798;6.430;2023-01-16T05:38:08;1.65;;;1.55;;
19285;SDS011;9776;50.798;6.430;2023-01-16T05:40:35;1.85;;;1.75;;
19285;SDS011;9776;50.798;6.430;2023-01-16T05:43:02;1.80;;;1.70;;
19285;SDS011;9776;50.798;6.430;2023-01-16T05:45:30;1.80;;;1.70;;
19285;SDS011;9776;50.798;6.430;2023-01-16T05:47:57;1.85;;;1.75;;
19285;SDS011;9776;50.798;6.430;2023-01-16T05:50:24;1.70;;;1.60;;
19285;SDS011;9776;50.798;6.430;2023-01-16T05:52:51;1.70;;;1.60;;
19285;SDS011;9776;50.798;6.430;2023-01-16T05:55:18;1.83;;;1.73;;
19285;SDS011;9776;50.798;6.430;2023-01-16T05:57:45;2.00;;;1.90;;
19285;SDS011;9776;50.798;6.430;2023-01-16T06:00:12;1.70;;;1.60;;
19285;SDS011;9776;50.798;6.430;2023-01-16T06:02:41;1.80;;;1.70;;
19285;SDS011;9776;50.798;6.430;2023-01-16T06:05:08;1.80;;;1.70;;
19285;SDS011;9776;50.798;6.430;2023-01-16T06:07:35;1.98;;;1.88;;
19285;SDS011;9776;50.798;6.430;2023-01-16T06:10:02;1.50;;;1.40;;
19285;SDS011;9776;50.798;6.430;2023-01-16T06:12:29;1.70;;;1.60;;
19285;SDS011;9776;50.798;6.430;2023-01-16T06:14:56;1.90;;;1.80;;
19285;SDS011;9776;50.798;6.430;2023-01-16T06:17:23;2.13;;;1.92;;
19285;SDS011;9776;50.798;6.430;2023-01-16T06:19:51;1.80;;;1.70;;
19285;SDS011;9776;50.798;6.430;2023-01-16T06:22:18;2.00;;;1.90;;
19285;SDS011;9776;50.798;6.430;2023-01-16T06:24:45;2.20;;;2.03;;
19285;SDS011;9776;50.798;6.430;2023-01-16T06:27:12;2.35;;;2.10;;
19285;SDS011;9776;50.798;6.430;2023-01-16T06:29:38;2.15;;;2.05;;
19285;SDS011;9776;50.798;6.430;2023-01-16T06:32:06;2.70;;;2.25;;
19285;SDS011;9776;50.798;6.430;2023-01-16T06:34:33;1.67;;;1.58;;
19285;SDS011;9776;50.798;6.430;2023-01-16T06:37:01;1.88;;;1.77;;
19285;SDS011;9776;50.798;6.430;2023-01-16T06:39:28;2.20;;;2.10;;
19285;SDS011;9776;50.798;6.430;2023-01-16T06:41:54;1.80;;;1.70;;
19285;SDS011;9776;50.798;6.430;2023-01-16T06:44:21;1.80;;;1.70;;
19285;SDS011;9776;50.798;6.430;2023-01-16T06:46:48;1.88;;;1.77;;
19285;SDS011;9776;50.798;6.430;2023-01-16T06:49:15;1.75;;;1.65;;
19285;SDS011;9776;50.798;6.430;2023-01-16T06:51:41;1.95;;;1.85;;
19285;SDS011;9776;50.798;6.430;2023-01-16T06:54:10;2.00;;;1.75;;
19285;SDS011;9776;50.798;6.430;2023-01-16T06:56:37;1.70;;;1.60;;
19285;SDS011;9776;50.798;6.430;2023-01-16T06:59:04;1.90;;;1.70;;
19285;SDS011;9776;50.798;6.430;2023-01-16T07:01:30;1.90;;;1.80;;
19285;SDS011;9776;50.798;6.430;2023-01-16T07:03:57;2.08;;;1.90;;
19285;SDS011;9776;50.798;6.430;2023-01-16T07:06:24;1.92;;;1.77;;
19285;SDS011;9776;50.798;6.430;2023-01-16T07:08:50;2.35;;;2.08;;
19285;SDS011;9776;50.798;6.430;2023-01-16T07:11:20;2.17;;;2.05;;
19285;SDS011;9776;50.798;6.430;2023-01-16T07:13:47;2.38;;;2.17;;
19285;SDS011;9776;50.798;6.430;2023-01-16T07:16:14;1.80;;;1.70;;
19285;SDS011;9776;50.798;6.430;2023-01-16T07:19:00;1.83;;;1.73;;
19285;SDS011;9776;50.798;6.430;2023-01-16T07:21:44;1.95;;;1.85;;
19285;SDS011;9776;50.798;6.430;2023-01-16T07:24:32;1.80;;;1.70;;
19285;SDS011;9776;50.798;6.430;2023-01-16T07:27:05;1.77;;;1.67;;
19285;SDS011;9776;50.798;6.430;2023-01-16T07:29:34;1.90;;;1.80;;
19285;SDS011;9776;50.798;6.430;2023-01-16T07:32:01;2.10;;;2.00;;
19285;SDS011;9776;50.798;6.430;2023-01-16T07:34:29;2.08;;;1.80;;
19285;SDS011;9776;50.798;6.430;2023-01-16T07:36:56;1.77;;;1.67;;
19285;SDS011;9776;50.798;6.430;2023-01-16T07:39:23;1.77;;;1.67;;
19285;SDS011;9776;50.798;6.430;2023-01-16T07:41:49;2.20;;;2.10;;
19285;SDS011;9776;50.798;6.430;2023-01-16T07:44:18;1.60;;;1.50;;
19285;SDS011;9776;50.798;6.430;2023-01-16T07:46:45;1.90;;;1.80;;
19285;SDS011;9776;50.798;6.430;2023-01-16T07:49:11;1.70;;;1.60;;
19285;SDS011;9776;50.798;6.430;2023-01-16T07:51:38;1.90;;;1.80;;
19285;SDS011;9776;50.798;6.430;2023-01-16T07:54:05;1.80;;;1.55;;
19285;SDS011;9776;50.798;6.430;2023-01-16T07:56:33;1.92;;;1.83;;
19285;SDS011;9776;50.798;6.430;2023-01-16T07:59:00;1.80;;;1.70;;
19285;SDS011;9776;50.798;6.430;2023-01-16T08:01:28;1.77;;;1.67;;
19285;SDS011;9776;50.798;6.430;2023-01-16T08:03:55;1.75;;;1.65;;
19285;SDS011;9776;50.798;6.430;2023-01-16T08:06:22;2.00;;;1.90;;
19285;SDS011;9776;50.798;6.430;2023-01-16T08:08:49;1.88;;;1.77;;
19285;SDS011;9776;50.798;6.430;2023-01-16T08:11:15;1.90;;;1.80;;
19285;SDS011;9776;50.798;6.430;2023-01-16T08:14:00;2.00;;;1.90;;
19285;SDS011;9776;50.798;6.430;2023-01-16T08:16:29;2.08;;;1.98;;
19285;SDS011;9776;50.798;6.430;2023-01-16T08:18:55;2.05;;;1.95;;
19285;SDS011;9776;50.798;6.430;2023-01-16T08:21:22;1.70;;;1.60;;
19285;SDS011;9776;50.798;6.430;2023-01-16T08:23:49;2.10;;;1.90;;
19285;SDS011;9776;50.798;6.430;2023-01-16T08:26:15;1.98;;;1.88;;
19285;SDS011;9776;50.798;6.430;2023-01-16T08:28:42;2.25;;;2.15;;
19285;SDS011;9776;50.798;6.430;2023-01-16T08:31:10;1.90;;;1.80;;
19285;SDS011;9776;50.798;6.430;2023-01-16T08:33:40;2.03;;;1.92;;
19285;SDS011;9776;50.798;6.430;2023-01-16T08:36:08;1.98;;;1.88;;
19285;SDS011;9776;50.798;6.430;2023-01-16T08:38:37;2.17;;;2.08;;
19285;SDS011;9776;50.798;6.430;2023-01-16T08:41:04;1.90;;;1.80;;
19285;SDS011;9776;50.798;6.430;2023-01-16T08:43:51;1.85;;;1.75;;
19285;SDS011;9776;50.798;6.430;2023-01-16T08:46:35;1.70;;;1.60;;
19285;SDS011;9776;50.798;6.430;2023-01-16T08:49:21;1.90;;;1.80;;
19285;SDS011;9776;50.798;6.430;2023-01-16T08:52:05;2.10;;;2.00;;
19285;SDS011;9776;50.798;6.430;2023-01-16T08:54:32;1.80;;;1.70;;
19285;SDS011;9776;50.798;6.430;2023-01-16T08:56:59;1.50;;;1.50;;
19285;SDS011;9776;50.798;6.430;2023-01-16T08:59:26;2.03;;;1.92;;
19285;SDS011;9776;50.798;6.430;2023-01-16T09:01:58;1.90;;;1.80;;
19285;SDS011;9776;50.798;6.430;2023-01-16T09:04:26;2.00;;;1.90;;
19285;SDS011;9776;50.798;6.430;2023-01-16T09:06:53;1.98;;;1.88;;
19285;SDS011;9776;50.798;6.430;2023-01-16T09:09:20;1.88;;;1.77;;
19285;SDS011;9776;50.798;6.430;2023-01-16T09:11:52;2.78;;;1.77;;
19285;SDS011;9776;50.798;6.430;2023-01-16T09:14:42;1.70;;;1.60;;
19285;SDS011;9776;50.798;6.430;2023-01-16T09:17:09;1.80;;;1.70;;
19285;SDS011;9776;50.798;6.430;2023-01-16T09:19:37;2.10;;;2.00;;
19285;SDS011;9776;50.798;6.430;2023-01-16T09:22:04;1.50;;;1.50;;
19285;SDS011;9776;50.798;6.430;2023-01-16T09:24:32;1.67;;;1.65;;
19285;SDS011;9776;50.798;6.430;2023-01-16T09:26:59;1.60;;;1.60;;
19285;SDS011;9776;50.798;6.430;2023-01-16T09:29:25;1.73;;;1.63;;
19285;SDS011;9776;50.798;6.430;2023-01-16T09:31:53;2.13;;;2.03;;
19285;SDS011;9776;50.798;6.430;2023-01-16T09:34:19;1.77;;;1.67;;
19285;SDS011;9776;50.798;6.430;2023-01-16T09:36:47;1.48;;;1.48;;
19285;SDS011;9776;50.798;6.430;2023-01-16T09:39:14;1.60;;;1.60;;
19285;SDS011;9776;50.798;6.430;2023-01-16T09:41:43;1.63;;;1.63;;
19285;SDS011;9776;50.798;6.430;2023-01-16T09:44:37;1.50;;;1.50;;
19285;SDS011;9776;50.798;6.430;2023-01-16T09:47:06;1.30;;;1.30;;
19285;SDS011;9776;50.798;6.430;2023-01-16T09:49:36;1.35;;;1.35;;
19285;SDS011;9776;50.798;6.430;2023-01-16T09:52:14;1.40;;;1.40;;
19285;SDS011;9776;50.798;6.430;2023-01-16T09:55:13;1.60;;;1.60;;
19285;SDS011;9776;50.798;6.430;2023-01-16T09:58:00;1.38;;;1.38;;
19285;SDS011;9776;50.798;6.430;2023-01-16T10:00:47;2.03;;;1.35;;
19285;SDS011;9776;50.798;6.430;2023-01-16T10:03:13;1.98;;;1.58;;
19285;SDS011;9776;50.798;6.430;2023-01-16T10:05:41;1.63;;;1.58;;
19285;SDS011;9776;50.798;6.430;2023-01-16T10:08:18;1.40;;;1.40;;
19285;SDS011;9776;50.798;6.430;2023-01-16T10:10:51;1.75;;;1.67;;
19285;SDS011;9776;50.798;6.430;2023-01-16T10:13:28;1.30;;;1.30;;
19285;SDS011;9776;50.798;6.430;2023-01-16T10:16:31;1.20;;;1.20;;
19285;SDS011;9776;50.798;6.430;2023-01-16T10:19:09;1.58;;;1.58;;
19285;SDS011;9776;50.798;6.430;2023-01-16T10:21:51;1.40;;;1.40;;
19285;SDS011;9776;50.798;6.430;2023-01-16T10:24:35;1.80;;;1.70;;
19285;SDS011;9776;50.798;6.430;2023-01-16T10:27:13;1.38;;;1.38;;
19285;SDS011;9776;50.798;6.430;2023-01-16T10:29:46;1.95;;;1.85;;
19285;SDS011;9776;50.798;6.430;2023-01-16T10:32:18;1.45;;;1.45;;
19285;SDS011;9776;50.798;6.430;2023-01-16T10:34:51;1.60;;;1.50;;
19285;SDS011;9776;50.798;6.430;2023-01-16T10:37:22;1.50;;;1.45;;
19285;SDS011;9776;50.798;6.430;2023-01-16T10:39:51;1.40;;;1.40;;
19285;SDS011;9776;50.798;6.430;2023-01-16T10:42:21;1.50;;;1.40;;
19285;SDS011;9776;50.798;6.430;2023-01-16T10:45:12;1.50;;;1.50;;
19285;SDS011;9776;50.798;6.430;2023-01-16T10:48:07;1.45;;;1.38;;
19285;SDS011;9776;50.798;6.430;2023-01-16T10:50:54;1.30;;;1.30;;
19285;SDS011;9776;50.798;6.430;2023-01-16T10:53:22;1.10;;;1.10;;
19285;SDS011;9776;50.798;6.430;2023-01-16T10:55:50;1.83;;;1.73;;
19285;SDS011;9776;50.798;6.430;2023-01-16T10:58:22;1.48;;;1.40;;
19285;SDS011;9776;50.798;6.430;2023-01-16T11:00:52;1.38;;;1.38;;
19285;SDS011;9776;50.798;6.430;2023-01-16T11:03:22;1.75;;;1.65;;
19285;SDS011;9776;50.798;6.430;2023-01-16T11:06:08;1.42;;;1.42;;
19285;SDS011;9776;50.798;6.430;2023-01-16T11:08:38;1.40;;;1.30;;
19285;SDS011;9776;50.798;6.430;2023-01-16T11:11:07;2.22;;;1.50;;
19285;SDS011;9776;50.798;6.430;2023-01-16T11:13:55;1.35;;;1.35;;
19285;SDS011;9776;50.798;6.430;2023-01-16T11:16:40;1.30;;;1.30;;
19285;SDS011;9776;50.798;6.430;2023-01-16T11:19:25;1.10;;;1.10;;
19285;SDS011;9776;50.798;6.430;2023-01-16T11:21:53;1.30;;;1.30;;
19285;SDS011;9776;50.798;6.430;2023-01-16T11:24:24;1.27;;;1.27;;
19285;SDS011;9776;50.798;6.430;2023-01-16T11:26:59;1.40;;;1.30;;
19285;SDS011;9776;50.798;6.430;2023-01-16T11:29:28;1.25;;;1.25;;
19285;SDS011;9776;50.798;6.430;2023-01-16T11:32:03;1.20;;;1.10;;
19285;SDS011;9776;50.798;6.430;2023-01-16T11:34:32;1.42;;;1.33;;
19285;SDS011;9776;50.798;6.430;2023-01-16T11:37:00;1.33;;;1.33;;
19285;SDS011;9776;50.798;6.430;2023-01-16T11:39:30;1.52;;;1.48;;
19285;SDS011;9776;50.798;6.430;2023-01-16T11:42:02;1.80;;;1.70;;
19285;SDS011;9776;50.798;6.430;2023-01-16T11:44:54;2.00;;;1.90;;
19285;SDS011;9776;50.798;6.430;2023-01-16T11:47:41;1.30;;;1.30;;
19285;SDS011;9776;50.798;6.430;2023-01-16T11:50:20;1.52;;;1.42;;
19285;SDS011;9776;50.798;6.430;2023-01-16T11:52:51;1.25;;;1.25;;
19285;SDS011;9776;50.798;6.430;2023-01-16T11:55:18;0.98;;;0.98;;
19285;SDS011;9776;50.798;6.430;2023-01-16T11:57:47;1.27;;;1.27;;
19285;SDS011;9776;50.798;6.430;2023-01-16T12:00:22;1.20;;;1.20;;
19285;SDS011;9776;50.798;6.430;2023-01-16T12:03:11;1.20;;;1.20;;
19285;SDS011;9776;50.798;6.430;2023-01-16T12:06:00;1.92;;;1.83;;
19285;SDS011;9776;50.798;6.430;2023-01-16T12:14:25;1.98;;;1.88;;
19285;SDS011;9776;50.798;6.430;2023-01-16T12:17:03;2.75;;;2.55;;
19285;SDS011;9776;50.798;6.430;2023-01-16T12:19:53;2.92;;;2.72;;
19285;SDS011;9776;50.798;6.430;2023-01-16T12:22:32;1.73;;;1.63;;
19285;SDS011;9776;50.798;6.430;2023-01-16T12:25:16;3.63;;;3.42;;
19285;SDS011;9776;50.798;6.430;2023-01-16T12:27:51;1.90;;;1.80;;
19285;SDS011;9776;50.798;6.430;2023-01-16T12:30:32;2.05;;;1.95;;
19285;SDS011;9776;50.798;6.430;2023-01-16T12:33:12;2.97;;;2.78;;
19285;SDS011;9776;50.798;6.430;2023-01-16T12:35:48;1.75;;;1.65;;
19285;SDS011;9776;50.798;6.430;2023-01-16T12:38:24;1.70;;;1.60;;
19285;SDS011;9776;50.798;6.430;2023-01-16T12:41:00;3.15;;;2.95;;
19285;SDS011;9776;50.798;6.430;2023-01-16T12:43:58;1.40;;;1.40;;
19285;SDS011;9776;50.798;6.430;2023-01-16T12:46:38;3.08;;;2.88;;
19285;SDS011;9776;50.798;6.430;2023-01-16T12:49:18;7.22;;;6.63;;
19285;SDS011;9776;50.798;6.430;2023-01-16T12:51:58;2.00;;;1.90;;
19285;SDS011;9776;50.798;6.430;2023-01-16T12:54:41;3.67;;;3.47;;
19285;SDS011;9776;50.798;6.430;2023-01-16T12:57:29;1.38;;;1.30;;
19285;SDS011;9776;50.798;6.430;2023-01-16T13:00:17;1.63;;;1.52;;
19285;SDS011;9776;50.798;6.430;2023-01-16T13:02:52;3.10;;;2.90;;
19285;SDS011;9776;50.798;6.430;2023-01-16T13:05:24;2.28;;;2.17;;
19285;SDS011;9776;50.798;6.430;2023-01-16T13:07:54;2.53;;;2.42;;
19285;SDS011;9776;50.798;6.430;2023-01-16T13:10:27;3.53;;;3.33;;
19285;SDS011;9776;50.798;6.430;2023-01-16T13:13:14;1.42;;;1.42;;
19285;SDS011;9776;50.798;6.430;2023-01-16T13:15:50;2.60;;;2.42;;
19285;SDS011;9776;50.798;6.430;2023-01-16T13:18:28;1.80;;;1.70;;
19285;SDS011;9776;50.798;6.430;2023-01-16T13:21:01;5.50;;;5.10;;
19285;SDS011;9776;50.798;6.430;2023-01-16T13:23:31;1.85;;;1.75;;
19285;SDS011;9776;50.798;6.430;2023-01-16T13:26:00;1.60;;;1.50;;
19285;SDS011;9776;50.798;6.430;2023-01-16T13:28:34;5.50;;;5.05;;
19285;SDS011;9776;50.798;6.430;2023-01-16T13:31:11;7.10;;;6.50;;
19285;SDS011;9776;50.798;6.430;2023-01-16T13:33:46;9.07;;;8.27;;
19285;SDS011;9776;50.798;6.430;2023-01-16T13:36:27;6.68;;;6.07;;
19285;SDS011;9776;50.798;6.430;2023-01-16T13:39:10;7.25;;;3.95;;
19285;SDS011;9776;50.798;6.430;2023-01-16T13:41:50;3.90;;;3.63;;
19285;SDS011;9776;50.798;6.430;2023-01-16T13:44:21;2.85;;;2.65;;
19285;SDS011;9776;50.798;6.430;2023-01-16T13:47:09;2.50;;;2.40;;
19285;SDS011;9776;50.798;6.430;2023-01-16T13:49:41;2.60;;;2.45;;
19285;SDS011;9776;50.798;6.430;2023-01-16T13:52:16;2.70;;;2.60;;
19285;SDS011;9776;50.798;6.430;2023-01-16T13:54:47;2.50;;;2.30;;
19285;SDS011;9776;50.798;6.430;2023-01-16T13:57:17;3.05;;;2.85;;
19285;SDS011;9776;50.798;6.430;2023-01-16T13:59:46;2.28;;;2.17;;
19285;SDS011;9776;50.798;6.430;2023-01-16T14:02:22;1.70;;;1.60;;
19285;SDS011;9776;50.798;6.430;2023-01-16T14:08:13;1.70;;;1.60;;
19285;SDS011;9776;50.798;6.430;2023-01-16T14:11:12;1.60;;;1.50;;
19285;SDS011;9776;50.798;6.430;2023-01-16T14:13:41;1.50;;;1.50;;
19285;SDS011;9776;50.798;6.430;2023-01-16T14:16:29;1.63;;;1.60;;
19285;SDS011;9776;50.798;6.430;2023-01-16T14:19:02;1.77;;;1.67;;
19285;SDS011;9776;50.798;6.430;2023-01-16T14:21:45;1.40;;;1.40;;
19285;SDS011;9776;50.798;6.430;2023-01-16T14:24:48;1.77;;;1.67;;
19285;SDS011;9776;50.798;6.430;2023-01-16T14:27:17;1.50;;;1.50;;
19285;SDS011;9776;50.798;6.430;2023-01-16T14:29:47;2.00;;;1.90;;
19285;SDS011;9776;50.798;6.430;2023-01-16T14:32:17;2.10;;;2.00;;
19285;SDS011;9776;50.798;6.430;2023-01-16T14:34:47;1.33;;;1.33;;
19285;SDS011;9776;50.798;6.430;2023-01-16T14:37:19;1.45;;;1.40;;
19285;SDS011;9776;50.798;6.430;2023-01-16T14:39:51;3.65;;;1.90;;
19285;SDS011;9776;50.798;6.430;2023-01-16T14:42:20;1.60;;;1.50;;
19285;SDS011;9776;50.798;6.430;2023-01-16T14:45:21;1.45;;;1.45;;
19285;SDS011;9776;50.798;6.430;2023-01-16T14:48:13;1.38;;;1.38;;
19285;SDS011;9776;50.798;6.430;2023-01-16T14:51:14;1.40;;;1.40;;
19285;SDS011;9776;50.798;6.430;2023-01-16T14:54:02;1.70;;;1.60;;
19285;SDS011;9776;50.798;6.430;2023-01-16T14:56:52;1.40;;;1.40;;
19285;SDS011;9776;50.798;6.430;2023-01-16T14:59:26;1.67;;;1.58;;
19285;SDS011;9776;50.798;6.430;2023-01-16T15:01:57;1.70;;;1.60;;
19285;SDS011;9776;50.798;6.430;2023-01-16T15:04:45;1.77;;;1.67;;
19285;SDS011;9776;50.798;6.430;2023-01-16T15:07:28;1.58;;;1.50;;
19285;SDS011;9776;50.798;6.430;2023-01-16T15:09:59;1.60;;;1.50;;
19285;SDS011;9776;50.798;6.430;2023-01-16T15:12:36;1.40;;;1.40;;
19285;SDS011;9776;50.798;6.430;2023-01-16T15:15:05;1.40;;;1.40;;
19285;SDS011;9776;50.798;6.430;2023-01-16T15:17:45;1.58;;;1.50;;
19285;SDS011;9776;50.798;6.430;2023-01-16T15:20:30;1.70;;;1.60;;
19285;SDS011;9776;50.798;6.430;2023-01-16T15:23:17;2.13;;;2.03;;
19285;SDS011;9776;50.798;6.430;2023-01-16T15:28:41;1.60;;;1.50;;
19285;SDS011;9776;50.798;6.430;2023-01-16T15:31:17;1.52;;;1.52;;
19285;SDS011;9776;50.798;6.430;2023-01-16T15:33:56;1.88;;;1.77;;
19285;SDS011;9776;50.798;6.430;2023-01-16T15:36:25;2.10;;;2.00;;
19285;SDS011;9776;50.798;6.430;2023-01-16T15:38:58;2.40;;;2.30;;
19285;SDS011;9776;50.798;6.430;2023-01-16T15:41:33;1.90;;;1.80;;
19285;SDS011;9776;50.798;6.430;2023-01-16T15:44:21;2.03;;;1.80;;
19285;SDS011;9776;50.798;6.430;2023-01-16T15:47:15;1.70;;;1.60;;
19285;SDS011;9776;50.798;6.430;2023-01-16T15:49:55;2.10;;;2.00;;
19285;SDS011;9776;50.798;6.430;2023-01-16T15:52:33;1.80;;;1.70;;